createdAt,value
2019-01-17T00:00:05.588Z,2.72
2019-01-17T00:02:52.432Z,2.87
2019-01-17T00:05:43.422Z,2.90
2019-01-17T00:08:46.760Z,2.90
2019-01-17T00:11:46.842Z,3.30
2019-01-17T00:14:40.636Z,2.80
2019-01-17T00:17:29.205Z,5.77
2019-01-17T00:20:17.121Z,5.05
2019-01-17T00:22:56.686Z,5.37
2019-01-17T00:25:53.637Z,5.43
2019-01-17T00:28:47.845Z,3.37
2019-01-17T00:31:38.797Z,3.07
2019-01-17T00:34:27.059Z,2.93
2019-01-17T00:37:22.486Z,2.20
2019-01-17T00:40:09.352Z,2.40
2019-01-17T00:42:46.169Z,2.70
2019-01-17T00:45:32.912Z,2.33
2019-01-17T00:48:23.936Z,2.40
2019-01-17T00:51:10.640Z,2.45
2019-01-17T00:53:47.993Z,2.83
2019-01-17T00:56:48.235Z,2.57
2019-01-17T00:59:38.706Z,2.90
2019-01-17T01:02:25.668Z,2.60
2019-01-17T01:05:16.325Z,3.27
2019-01-17T01:08:04.316Z,2.63
2019-01-17T01:10:42.060Z,2.67
2019-01-17T01:13:30.049Z,2.93
2019-01-17T01:16:30.123Z,2.17
2019-01-17T01:19:10.188Z,2.33
2019-01-17T01:22:00.264Z,2.63
2019-01-17T01:24:44.329Z,2.50
2019-01-17T01:27:26.538Z,2.60
2019-01-17T01:30:10.193Z,2.83
2019-01-17T01:32:46.519Z,2.57
2019-01-17T01:35:37.610Z,2.00
2019-01-17T01:38:24.241Z,2.37
2019-01-17T01:41:07.279Z,2.60
2019-01-17T01:44:01.569Z,2.47
2019-01-17T01:46:53.301Z,3.03
2019-01-17T01:49:29.861Z,2.58
2019-01-17T01:52:09.203Z,2.58
2019-01-17T01:54:38.109Z,2.65
2019-01-17T01:57:07.104Z,2.90
2019-01-17T01:59:35.936Z,3.00
2019-01-17T02:02:04.932Z,2.13
2019-01-17T02:04:33.841Z,2.70
2019-01-17T02:07:02.690Z,2.52
2019-01-17T02:09:31.697Z,2.70
2019-01-17T02:12:00.544Z,2.80
2019-01-17T02:14:29.744Z,2.67
2019-01-17T02:16:58.796Z,2.65
2019-01-17T02:19:27.637Z,3.00
2019-01-17T02:21:56.476Z,2.60
2019-01-17T02:24:28.599Z,2.37
2019-01-17T02:26:55.952Z,2.70
2019-01-17T02:29:24.804Z,2.62
2019-01-17T02:31:53.864Z,2.47
2019-01-17T02:34:22.973Z,2.60
2019-01-17T02:36:51.893Z,2.58
2019-01-17T02:39:20.732Z,2.40
2019-01-17T02:41:52.030Z,2.65
2019-01-17T02:44:20.962Z,2.55
2019-01-17T02:46:49.797Z,2.55
2019-01-17T02:49:18.642Z,2.30
2019-01-17T02:52:06.705Z,2.40
2019-01-17T02:54:35.927Z,2.30
2019-01-17T02:57:06.291Z,2.37
2019-01-17T02:59:35.201Z,3.00
2019-01-17T03:02:04.193Z,2.17
2019-01-17T03:04:33.750Z,2.00
2019-01-17T03:07:02.762Z,2.42
2019-01-17T03:09:31.620Z,2.55
2019-01-17T03:12:00.520Z,2.98
2019-01-17T03:14:29.428Z,2.40
2019-01-17T03:16:58.411Z,2.67
2019-01-17T03:19:27.251Z,2.00
2019-01-17T03:21:56.096Z,2.10
2019-01-17T03:24:24.918Z,2.20
2019-01-17T03:26:53.844Z,2.40
2019-01-17T03:29:22.732Z,2.47
2019-01-17T03:31:51.777Z,2.43
2019-01-17T03:34:20.733Z,2.42
2019-01-17T03:36:49.566Z,2.13
2019-01-17T03:39:18.501Z,2.80
2019-01-17T03:41:47.497Z,2.90
2019-01-17T03:44:16.488Z,3.47
2019-01-17T03:46:45.318Z,3.20
2019-01-17T03:49:14.243Z,3.23
2019-01-17T03:51:43.144Z,3.47
2019-01-17T03:54:12.067Z,4.00
2019-01-17T03:56:41.060Z,3.60
2019-01-17T03:59:10.029Z,3.60
2019-01-17T04:01:38.983Z,3.47
2019-01-17T04:04:07.929Z,4.00
2019-01-17T04:06:36.766Z,3.60
2019-01-17T04:09:07.146Z,3.63
2019-01-17T04:11:36.145Z,3.30
2019-01-17T04:14:05.131Z,4.33
2019-01-17T04:16:34.121Z,3.80
2019-01-17T04:19:03.028Z,4.10
2019-01-17T04:21:31.945Z,3.90
2019-01-17T04:24:00.788Z,3.90
2019-01-17T04:26:29.628Z,3.80
2019-01-17T04:28:58.473Z,4.10
2019-01-17T04:31:27.337Z,3.67
2019-01-17T04:33:57.725Z,3.43
2019-01-17T04:36:26.648Z,4.10
2019-01-17T04:38:55.482Z,4.07
2019-01-17T04:41:24.348Z,3.97
2019-01-17T04:43:53.265Z,4.23
2019-01-17T04:46:22.339Z,4.07
2019-01-17T04:48:54.387Z,4.00
2019-01-17T04:51:23.237Z,4.17
2019-01-17T04:53:52.089Z,4.20
2019-01-17T04:56:21.045Z,3.60
2019-01-17T04:58:49.992Z,3.80
2019-01-17T05:01:18.857Z,3.87
2019-01-17T05:03:47.808Z,3.63
2019-01-17T05:06:18.027Z,4.80
2019-01-17T05:08:46.881Z,4.00
2019-01-17T05:11:15.789Z,3.80
2019-01-17T05:13:44.624Z,4.10
2019-01-17T05:16:13.452Z,4.07
2019-01-17T05:18:42.291Z,3.80
2019-01-17T05:21:11.133Z,3.77
2019-01-17T05:23:40.062Z,3.70
2019-01-17T05:26:08.968Z,4.37
2019-01-17T05:28:37.811Z,3.63
2019-01-17T05:31:06.816Z,3.90
2019-01-17T05:33:35.724Z,4.23
2019-01-17T05:36:04.727Z,4.00
2019-01-17T05:38:33.552Z,3.80
2019-01-17T05:41:02.468Z,3.90
2019-01-17T05:43:31.380Z,3.50
2019-01-17T05:46:00.205Z,3.83
2019-01-17T05:48:29.054Z,3.90
2019-01-17T05:50:57.886Z,4.13
2019-01-17T05:53:26.749Z,4.13
2019-01-17T05:55:55.672Z,4.07
2019-01-17T05:58:24.577Z,4.07
2019-01-17T06:00:53.485Z,4.03
2019-01-17T06:03:22.393Z,4.23
2019-01-17T06:05:51.457Z,4.17
2019-01-17T06:08:20.288Z,4.10
2019-01-17T06:10:49.213Z,4.13
2019-01-17T06:13:21.957Z,4.33
2019-01-17T06:15:52.132Z,4.40
2019-01-17T06:18:21.001Z,4.33
2019-01-17T06:20:50.221Z,5.40
2019-01-17T06:23:19.131Z,8.47
2019-01-17T06:25:47.974Z,6.80
2019-01-17T06:28:16.835Z,6.00
2019-01-17T06:30:45.849Z,6.60
2019-01-17T06:33:14.773Z,6.23
2019-01-17T06:35:43.609Z,5.93
2019-01-17T06:38:12.534Z,6.10
2019-01-17T06:40:41.537Z,5.27
2019-01-17T06:43:10.516Z,5.23
2019-01-17T06:45:39.357Z,4.70
2019-01-17T06:48:08.356Z,4.37
2019-01-17T06:50:37.193Z,4.47
2019-01-17T06:53:06.098Z,4.23
2019-01-17T06:55:34.951Z,4.50
2019-01-17T06:58:03.878Z,4.27
2019-01-17T07:00:32.805Z,4.00
2019-01-17T07:03:01.793Z,4.63
2019-01-17T07:05:30.718Z,4.53
2019-01-17T07:07:59.633Z,5.03
2019-01-17T07:10:28.541Z,4.67
2019-01-17T07:12:57.456Z,4.93
2019-01-17T07:15:26.369Z,4.50
2019-01-17T07:17:55.210Z,5.10
2019-01-17T07:20:52.196Z,5.13
2019-01-17T07:23:21.279Z,4.57
2019-01-17T07:25:50.488Z,4.50
2019-01-17T07:28:19.630Z,4.07
2019-01-17T07:30:48.812Z,5.33
2019-01-17T07:33:17.797Z,3.97
2019-01-17T07:35:46.855Z,4.50
2019-01-17T07:38:15.867Z,4.50
2019-01-17T07:40:44.854Z,4.47
2019-01-17T07:43:13.789Z,3.70
2019-01-17T07:45:42.871Z,3.67
2019-01-17T07:48:11.771Z,5.03
2019-01-17T07:50:40.613Z,4.03
2019-01-17T07:53:09.621Z,4.50
2019-01-17T07:55:38.532Z,3.70
2019-01-17T07:58:09.072Z,3.87
2019-01-17T08:00:38.029Z,3.53
2019-01-17T08:03:07.026Z,3.67
2019-01-17T08:05:36.029Z,3.67
2019-01-17T08:08:08.277Z,3.87
2019-01-17T08:10:37.126Z,3.23
2019-01-17T08:13:06.188Z,3.53
2019-01-17T08:15:35.133Z,3.23
2019-01-17T08:18:04.270Z,4.00
2019-01-17T08:20:33.295Z,4.57
2019-01-17T08:23:04.121Z,4.27
2019-01-17T08:25:32.975Z,5.47
2019-01-17T08:28:02.794Z,5.63
2019-01-17T08:30:31.777Z,5.00
2019-01-17T08:33:00.738Z,4.30
2019-01-17T08:35:29.683Z,4.33
2019-01-17T08:37:58.652Z,4.50
2019-01-17T08:40:29.926Z,5.27
2019-01-17T08:42:59.057Z,4.00
2019-01-17T08:45:28.053Z,4.20
2019-01-17T08:47:56.878Z,3.97
2019-01-17T08:50:25.877Z,2.83
2019-01-17T08:52:54.785Z,2.90
2019-01-17T08:55:23.694Z,3.20
2019-01-17T08:57:52.765Z,3.23
2019-01-17T09:00:23.001Z,3.27
2019-01-17T09:02:51.993Z,2.93
2019-01-17T09:05:20.973Z,2.40
2019-01-17T09:07:49.977Z,2.23
2019-01-17T09:10:21.228Z,2.63
2019-01-17T09:12:50.309Z,2.83
2019-01-17T09:15:21.064Z,2.23
2019-01-17T09:17:50.051Z,2.10
2019-01-17T09:20:19.040Z,2.60
2019-01-17T09:22:47.957Z,2.37
2019-01-17T09:25:17.085Z,2.33
2019-01-17T09:27:46.086Z,2.10
2019-01-17T09:30:16.898Z,2.10
2019-01-17T09:32:45.880Z,1.90
2019-01-17T09:35:15.493Z,1.80
2019-01-17T09:37:44.572Z,2.60
2019-01-17T09:40:16.021Z,2.17
2019-01-17T09:42:47.158Z,2.37
2019-01-17T09:45:16.362Z,2.20
2019-01-17T09:47:45.375Z,2.60
2019-01-17T09:50:22.337Z,2.87
2019-01-17T09:52:51.680Z,3.07
2019-01-17T09:55:20.685Z,3.50
2019-01-17T09:57:49.646Z,3.13
2019-01-17T10:00:23.984Z,2.20
2019-01-17T10:02:52.955Z,2.30
2019-01-17T10:05:21.981Z,2.00
2019-01-17T10:07:51.032Z,2.07
2019-01-17T10:10:20.143Z,2.00
2019-01-17T10:12:49.134Z,2.23
2019-01-17T10:15:24.690Z,1.93
2019-01-17T10:18:08.214Z,1.90
2019-01-17T10:21:00.305Z,2.10
2019-01-17T10:24:10.165Z,1.73
2019-01-17T10:27:10.414Z,2.47
2019-01-17T10:30:44.783Z,2.10
2019-01-17T10:33:22.273Z,2.00
2019-01-17T10:36:28.110Z,2.10
2019-01-17T10:39:22.177Z,2.27
2019-01-17T10:42:08.481Z,2.27
2019-01-17T10:45:26.353Z,2.00
2019-01-17T10:48:36.719Z,2.30
2019-01-17T10:51:35.213Z,2.27
2019-01-17T10:54:31.960Z,2.00
2019-01-17T10:57:11.048Z,2.10
2019-01-17T10:59:48.176Z,1.63
2019-01-17T11:02:49.515Z,2.20
2019-01-17T11:05:37.369Z,2.10
2019-01-17T11:08:32.245Z,2.30
2019-01-17T11:11:33.606Z,2.03
2019-01-17T11:14:28.089Z,2.37
2019-01-17T11:17:27.617Z,1.93
2019-01-17T11:20:43.598Z,2.43
2019-01-17T11:23:56.545Z,3.13
2019-01-17T11:26:59.129Z,2.60
2019-01-17T11:30:06.075Z,2.00
2019-01-17T11:33:20.843Z,2.60
2019-01-17T11:36:20.172Z,4.00
2019-01-17T11:39:31.101Z,2.47
2019-01-17T11:42:38.046Z,2.70
2019-01-17T11:46:01.589Z,2.40
2019-01-17T11:48:56.078Z,2.30
2019-01-17T11:52:11.569Z,2.57
2019-01-17T11:55:34.946Z,2.40
2019-01-17T11:58:26.624Z,2.37
2019-01-17T12:01:31.013Z,2.60
2019-01-17T12:04:30.989Z,2.90
2019-01-17T12:07:02.238Z,2.40
2019-01-17T12:09:31.177Z,2.50
2019-01-17T12:12:00.070Z,2.90
2019-01-17T12:14:28.932Z,2.50
2019-01-17T12:16:57.901Z,2.60
2019-01-17T12:19:26.734Z,2.30
2019-01-17T12:21:55.696Z,2.53
2019-01-17T12:24:24.633Z,2.80
2019-01-17T12:26:53.568Z,2.70
2019-01-17T12:29:22.540Z,2.67
2019-01-17T12:31:51.468Z,2.93
2019-01-17T12:34:20.259Z,3.03
2019-01-17T12:36:49.248Z,2.87
2019-01-17T12:39:18.205Z,3.00
2019-01-17T12:41:47.121Z,3.60
2019-01-17T12:44:16.117Z,2.97
2019-01-17T12:46:44.947Z,3.40
2019-01-17T12:49:13.921Z,2.90
2019-01-17T12:51:42.732Z,2.77
2019-01-17T12:54:11.653Z,3.20
2019-01-17T12:56:40.655Z,3.00
2019-01-17T12:59:09.627Z,3.13
2019-01-17T13:01:38.520Z,2.77
2019-01-17T13:04:07.574Z,2.80
2019-01-17T13:06:36.405Z,2.67
2019-01-17T13:09:09.553Z,3.27
2019-01-17T13:11:38.457Z,3.03
2019-01-17T13:14:07.531Z,2.60
2019-01-17T13:16:36.435Z,2.83
2019-01-17T13:19:05.609Z,2.97
2019-01-17T13:21:34.594Z,2.90
2019-01-17T13:24:03.524Z,2.93
2019-01-17T13:26:33.313Z,3.00
2019-01-17T13:29:02.153Z,2.87
2019-01-17T13:31:30.985Z,3.37
2019-01-17T13:33:59.889Z,3.07
2019-01-17T13:36:28.740Z,2.77
2019-01-17T13:38:57.636Z,2.80
2019-01-17T13:41:26.469Z,2.90
2019-01-17T13:43:55.484Z,2.80
2019-01-17T13:46:24.482Z,2.83
2019-01-17T13:48:53.321Z,2.47
2019-01-17T13:51:22.234Z,2.50
2019-01-17T13:53:51.081Z,2.60
2019-01-17T13:56:20.099Z,2.47
2019-01-17T13:58:49.011Z,2.40
2019-01-17T14:01:17.981Z,2.27
2019-01-17T14:03:46.894Z,2.00
2019-01-17T14:06:15.737Z,2.03
2019-01-17T14:08:44.644Z,2.30
2019-01-17T14:11:13.685Z,2.20
2019-01-17T14:13:42.584Z,1.60
2019-01-17T14:16:11.572Z,2.00
2019-01-17T14:18:40.401Z,1.97
2019-01-17T14:21:09.389Z,1.70
2019-01-17T14:23:38.241Z,1.87
2019-01-17T14:26:07.224Z,1.70
2019-01-17T14:28:36.042Z,1.70
2019-01-17T14:31:04.945Z,1.30
2019-01-17T14:33:33.777Z,1.30
2019-01-17T14:36:02.753Z,1.23
2019-01-17T14:38:31.593Z,1.20
2019-01-17T14:41:00.432Z,1.20
2019-01-17T14:43:29.481Z,1.60
2019-01-17T14:45:58.302Z,1.27
2019-01-17T14:48:27.160Z,1.80
2019-01-17T14:50:56.146Z,1.40
2019-01-17T14:53:25.049Z,1.50
2019-01-17T14:55:53.903Z,1.27
2019-01-17T14:58:22.808Z,2.00
2019-01-17T15:00:51.780Z,1.40
2019-01-17T15:03:20.701Z,1.40
2019-01-17T15:05:49.612Z,1.17
2019-01-17T15:08:18.534Z,1.40
2019-01-17T15:10:47.381Z,1.50
2019-01-17T15:13:16.373Z,1.20
2019-01-17T15:15:45.297Z,1.40
2019-01-17T15:18:14.292Z,1.57
2019-01-17T15:20:43.287Z,1.50
2019-01-17T15:23:13.081Z,1.03
2019-01-17T15:25:42.065Z,1.03
2019-01-17T15:28:10.998Z,1.30
2019-01-17T15:30:39.925Z,0.90
2019-01-17T15:33:08.846Z,1.07
2019-01-17T15:35:37.754Z,1.37
2019-01-17T15:38:06.682Z,1.17
2019-01-17T15:40:35.702Z,0.87
2019-01-17T15:43:04.713Z,1.50
2019-01-17T15:45:33.703Z,1.60
2019-01-17T15:48:02.617Z,4.20
2019-01-17T15:50:31.625Z,1.87
2019-01-17T15:53:00.557Z,1.63
2019-01-17T15:55:29.597Z,1.67
2019-01-17T15:57:58.557Z,1.80
2019-01-17T16:00:29.877Z,1.50
2019-01-17T16:02:58.860Z,1.47
2019-01-17T16:05:27.870Z,1.80
2019-01-17T16:07:56.920Z,1.80
2019-01-17T16:10:25.861Z,1.57
2019-01-17T16:12:54.789Z,1.50
2019-01-17T16:15:25.437Z,1.43
2019-01-17T16:17:54.520Z,1.50
2019-01-17T16:20:23.437Z,1.50
2019-01-17T16:22:53.356Z,1.47
2019-01-17T16:25:22.382Z,1.90
2019-01-17T16:27:53.120Z,1.60
2019-01-17T16:30:24.416Z,1.50
2019-01-17T16:32:53.433Z,1.40
2019-01-17T16:35:22.454Z,1.87
2019-01-17T16:37:51.453Z,1.50
2019-01-17T16:40:20.485Z,1.40
2019-01-17T16:42:49.550Z,1.63
2019-01-17T16:45:18.950Z,1.70
2019-01-17T16:47:47.791Z,1.70
2019-01-17T16:50:23.964Z,1.50
2019-01-17T16:52:52.892Z,1.60
2019-01-17T16:55:21.954Z,1.60
2019-01-17T16:57:52.519Z,1.80
2019-01-17T17:00:27.526Z,1.60
2019-01-17T17:02:56.608Z,1.40
2019-01-17T17:05:31.692Z,1.40
2019-01-17T17:08:01.750Z,1.30
2019-01-17T17:10:31.661Z,1.60
2019-01-17T17:13:00.692Z,1.60
2019-01-17T17:15:31.061Z,1.43
2019-01-17T17:18:00.358Z,1.50
2019-01-17T17:20:29.577Z,1.53
2019-01-17T17:22:58.662Z,1.57
2019-01-17T17:25:32.175Z,1.43
2019-01-17T17:28:01.599Z,1.40
2019-01-17T17:30:30.606Z,1.53
2019-01-17T17:32:59.495Z,1.47
2019-01-17T17:35:28.481Z,1.63
2019-01-17T17:37:57.438Z,1.70
2019-01-17T17:40:28.632Z,1.53
2019-01-17T17:42:57.700Z,1.50
2019-01-17T17:45:26.839Z,1.67
2019-01-17T17:47:57.373Z,1.63
2019-01-17T17:50:26.293Z,1.33
2019-01-17T17:52:55.341Z,1.50
2019-01-17T17:55:24.270Z,1.70
2019-01-17T17:57:53.212Z,1.70
2019-01-17T18:00:42.722Z,1.50
2019-01-17T18:03:11.696Z,1.90
2019-01-17T18:05:40.620Z,2.40
2019-01-17T18:08:09.590Z,2.77
2019-01-17T18:10:38.520Z,2.67
2019-01-17T18:13:07.530Z,1.60
2019-01-17T18:15:36.524Z,1.60
2019-01-17T18:18:05.780Z,1.37
2019-01-17T18:20:34.741Z,2.00
2019-01-17T18:23:03.746Z,1.77
2019-01-17T18:25:32.811Z,1.67
2019-01-17T18:28:01.778Z,1.80
2019-01-17T18:30:30.789Z,2.20
2019-01-17T18:32:59.722Z,1.80
2019-01-17T18:35:28.783Z,2.00
2019-01-17T18:37:57.763Z,2.00
2019-01-17T18:40:26.873Z,1.93
2019-01-17T18:42:55.814Z,2.00
2019-01-17T18:45:27.620Z,1.83
2019-01-17T18:47:56.653Z,1.90
2019-01-17T18:50:28.058Z,2.20
2019-01-17T18:52:57.097Z,1.90
2019-01-17T18:55:28.118Z,1.60
2019-01-17T18:57:57.117Z,1.73
2019-01-17T19:00:30.582Z,1.70
2019-01-17T19:03:00.139Z,2.20
2019-01-17T19:05:30.849Z,2.07
2019-01-17T19:07:59.835Z,2.20
2019-01-17T19:10:28.821Z,1.90
2019-01-17T19:12:57.677Z,2.63
2019-01-17T19:15:31.748Z,2.03
2019-01-17T19:18:01.192Z,2.20
2019-01-17T19:20:30.265Z,1.53
2019-01-17T19:22:59.354Z,2.27
2019-01-17T19:25:28.370Z,2.27
2019-01-17T19:27:57.341Z,4.40
2019-01-17T19:30:31.622Z,4.43
2019-01-17T19:33:00.646Z,3.40
2019-01-17T19:35:29.647Z,3.23
2019-01-17T19:37:58.654Z,3.27
2019-01-17T19:40:28.966Z,2.43
2019-01-17T19:42:57.977Z,3.60
2019-01-17T19:45:26.993Z,3.87
2019-01-17T19:47:56.025Z,3.10
2019-01-17T19:50:36.137Z,2.57
2019-01-17T19:53:06.303Z,2.43
2019-01-17T19:55:35.665Z,2.93
2019-01-17T19:58:05.612Z,4.27
2019-01-17T20:00:34.637Z,4.30
2019-01-17T20:03:04.377Z,6.03
2019-01-17T20:05:34.337Z,2.40
2019-01-17T20:08:03.362Z,6.10
2019-01-17T20:10:34.406Z,2.90
2019-01-17T20:13:04.691Z,2.27
2019-01-17T20:15:33.710Z,3.57
2019-01-17T20:18:02.676Z,2.30
2019-01-17T20:20:32.322Z,2.10
2019-01-17T20:23:02.446Z,1.80
2019-01-17T20:25:31.391Z,2.30
2019-01-17T20:28:00.422Z,2.80
2019-01-17T20:30:31.560Z,3.90
2019-01-17T20:33:01.935Z,3.60
2019-01-17T20:35:30.981Z,2.30
2019-01-17T20:38:00.353Z,3.30
2019-01-17T20:40:29.424Z,2.13
2019-01-17T20:42:58.285Z,2.73
2019-01-17T20:45:27.348Z,2.20
2019-01-17T20:47:56.604Z,2.40
2019-01-17T20:50:30.907Z,3.73
2019-01-17T20:53:02.125Z,5.50
2019-01-17T20:55:31.001Z,5.13
2019-01-17T20:57:59.952Z,3.47
2019-01-17T21:00:43.376Z,3.10
2019-01-17T21:03:17.518Z,2.23
2019-01-17T21:05:47.306Z,3.47
2019-01-17T21:08:16.337Z,2.13
2019-01-17T21:10:45.344Z,2.87
2019-01-17T21:13:14.282Z,1.90
2019-01-17T21:15:43.144Z,1.90
2019-01-17T21:18:18.814Z,1.50
2019-01-17T21:20:53.648Z,2.00
2019-01-17T21:23:23.797Z,1.53
2019-01-17T21:25:52.661Z,1.60
2019-01-17T21:28:21.562Z,1.63
2019-01-17T21:30:50.576Z,1.50
2019-01-17T21:33:19.525Z,1.60
2019-01-17T21:35:48.481Z,1.70
2019-01-17T21:38:17.498Z,1.60
2019-01-17T21:40:46.370Z,1.60
2019-01-17T21:43:15.221Z,1.50
2019-01-17T21:45:44.361Z,1.60
2019-01-17T21:48:13.364Z,1.80
2019-01-17T21:50:45.225Z,2.10
2019-01-17T21:53:17.310Z,1.70
2019-01-17T21:55:46.189Z,1.87
2019-01-17T21:58:15.106Z,1.80
2019-01-17T22:00:46.071Z,1.83
2019-01-17T22:03:14.993Z,2.13
2019-01-17T22:05:43.950Z,1.60
2019-01-17T22:08:14.430Z,1.67
2019-01-17T22:10:44.687Z,1.50
2019-01-17T22:13:15.094Z,1.50
2019-01-17T22:15:44.028Z,1.60
2019-01-17T22:18:12.902Z,2.00
2019-01-17T22:20:41.829Z,2.30
2019-01-17T22:23:10.884Z,1.70
2019-01-17T22:25:39.736Z,2.30
2019-01-17T22:28:08.684Z,2.30
2019-01-17T22:30:37.697Z,2.40
2019-01-17T22:33:06.636Z,2.37
2019-01-17T22:35:35.622Z,2.20
2019-01-17T22:38:04.626Z,2.33
2019-01-17T22:40:33.637Z,1.70
2019-01-17T22:43:02.601Z,1.97
2019-01-17T22:45:31.745Z,2.30
2019-01-17T22:48:00.665Z,2.97
2019-01-17T22:50:29.681Z,2.20
2019-01-17T22:52:58.678Z,1.90
2019-01-17T22:55:28.693Z,3.13
2019-01-17T22:57:57.601Z,2.30
2019-01-17T23:00:55.657Z,2.50
2019-01-17T23:03:45.543Z,2.20
2019-01-17T23:06:14.497Z,2.12
2019-01-17T23:08:43.355Z,2.57
2019-01-17T23:11:12.422Z,2.40
2019-01-17T23:13:43.404Z,1.80
2019-01-17T23:16:12.384Z,2.33
2019-01-17T23:18:41.250Z,3.87
2019-01-17T23:21:10.150Z,2.50
2019-01-17T23:23:39.258Z,2.58
2019-01-17T23:26:09.893Z,3.00
2019-01-17T23:28:42.829Z,2.30
2019-01-17T23:31:13.373Z,2.70
2019-01-17T23:33:44.577Z,2.23
2019-01-17T23:36:13.629Z,3.97
2019-01-17T23:38:42.472Z,2.97
2019-01-17T23:41:12.108Z,2.67
2019-01-17T23:43:41.158Z,2.17
2019-01-17T23:46:10.367Z,2.00
2019-01-17T23:48:40.562Z,2.80
2019-01-17T23:51:11.387Z,2.33
2019-01-17T23:53:40.343Z,2.00
2019-01-17T23:56:09.385Z,2.65
2019-01-17T23:58:38.239Z,2.60
